sensor_id;sensor_type;location;lat;lon;timestamp;temperature;humidity
72865;DHT22;61000;48.120;11.548;2023-09-19T00:00:07;16.60;99.90
72865;DHT22;61000;48.120;11.548;2023-09-19T00:02:34;16.70;99.90
72865;DHT22;61000;48.120;11.548;2023-09-19T00:05:02;16.70;99.90
72865;DHT22;61000;48.120;11.548;2023-09-19T00:07:30;16.70;99.90
72865;DHT22;61000;48.120;11.548;2023-09-19T00:09:57;16.70;99.90
72865;DHT22;61000;48.120;11.548;2023-09-19T00:12:24;16.80;99.90
72865;DHT22;61000;48.120;11.548;2023-09-19T00:14:52;16.70;99.90
72865;DHT22;61000;48.120;11.548;2023-09-19T00:17:19;16.80;99.90
72865;DHT22;61000;48.120;11.548;2023-09-19T00:19:46;16.80;99.90
72865;DHT22;61000;48.120;11.548;2023-09-19T00:22:17;16.80;99.90
72865;DHT22;61000;48.120;11.548;2023-09-19T00:24:44;16.80;99.90
72865;DHT22;61000;48.120;11.548;2023-09-19T00:27:11;16.90;99.90
72865;DHT22;61000;48.120;11.548;2023-09-19T00:29:38;16.90;99.90
72865;DHT22;61000;48.120;11.548;2023-09-19T00:32:07;16.80;99.90
72865;DHT22;61000;48.120;11.548;2023-09-19T00:34:34;16.80;99.90
72865;DHT22;61000;48.120;11.548;2023-09-19T00:37:01;16.80;99.90
72865;DHT22;61000;48.120;11.548;2023-09-19T00:39:29;16.70;99.90
72865;DHT22;61000;48.120;11.548;2023-09-19T00:41:57;16.70;99.90
72865;DHT22;61000;48.120;11.548;2023-09-19T00:44:24;16.60;99.90
72865;DHT22;61000;48.120;11.548;2023-09-19T00:46:52;16.60;99.90
72865;DHT22;61000;48.120;11.548;2023-09-19T00:49:21;16.60;99.90
72865;DHT22;61000;48.120;11.548;2023-09-19T00:51:48;16.60;99.90
72865;DHT22;61000;48.120;11.548;2023-09-19T00:54:18;16.50;99.90
72865;DHT22;61000;48.120;11.548;2023-09-19T01:07:16;16.50;99.90
72865;DHT22;61000;48.120;11.548;2023-09-19T01:09:43;16.40;99.90
72865;DHT22;61000;48.120;11.548;2023-09-19T01:12:13;16.40;99.90
72865;DHT22;61000;48.120;11.548;2023-09-19T01:14:48;16.40;99.90
72865;DHT22;61000;48.120;11.548;2023-09-19T01:17:23;16.60;99.90
72865;DHT22;61000;48.120;11.548;2023-09-19T01:20:19;16.40;99.90
72865;DHT22;61000;48.120;11.548;2023-09-19T01:23:06;16.40;99.90
72865;DHT22;61000;48.120;11.548;2023-09-19T01:26:04;16.40;99.90
72865;DHT22;61000;48.120;11.548;2023-09-19T01:28:43;16.40;99.90
72865;DHT22;61000;48.120;11.548;2023-09-19T01:31:14;16.50;99.90
72865;DHT22;61000;48.120;11.548;2023-09-19T01:33:54;16.50;99.90
72865;DHT22;61000;48.120;11.548;2023-09-19T01:36:26;16.60;99.90
72865;DHT22;61000;48.120;11.548;2023-09-19T01:38:54;16.60;99.90
72865;DHT22;61000;48.120;11.548;2023-09-19T01:41:25;16.60;99.90
72865;DHT22;61000;48.120;11.548;2023-09-19T01:43:53;16.60;99.90
72865;DHT22;61000;48.120;11.548;2023-09-19T01:46:24;16.70;99.90
72865;DHT22;61000;48.120;11.548;2023-09-19T01:49:06;16.70;99.90
72865;DHT22;61000;48.120;11.548;2023-09-19T01:51:45;16.70;99.90
72865;DHT22;61000;48.120;11.548;2023-09-19T01:54:18;16.80;99.90
72865;DHT22;61000;48.120;11.548;2023-09-19T01:56:51;16.80;99.90
72865;DHT22;61000;48.120;11.548;2023-09-19T01:59:23;16.80;99.90
72865;DHT22;61000;48.120;11.548;2023-09-19T02:01:54;16.80;99.90
72865;DHT22;61000;48.120;11.548;2023-09-19T02:04:22;16.80;99.90
72865;DHT22;61000;48.120;11.548;2023-09-19T02:06:49;16.80;99.90
72865;DHT22;61000;48.120;11.548;2023-09-19T02:09:17;16.90;99.90
72865;DHT22;61000;48.120;11.548;2023-09-19T02:11:44;16.80;99.90
72865;DHT22;61000;48.120;11.548;2023-09-19T02:14:12;16.80;99.90
72865;DHT22;61000;48.120;11.548;2023-09-19T02:16:40;16.80;99.90
72865;DHT22;61000;48.120;11.548;2023-09-19T02:19:09;16.80;99.90
72865;DHT22;61000;48.120;11.548;2023-09-19T02:21:36;16.90;99.90
72865;DHT22;61000;48.120;11.548;2023-09-19T02:24:06;16.90;99.90
72865;DHT22;61000;48.120;11.548;2023-09-19T02:26:35;16.80;99.90
72865;DHT22;61000;48.120;11.548;2023-09-19T02:29:02;16.80;99.90
72865;DHT22;61000;48.120;11.548;2023-09-19T02:31:30;16.80;99.90
72865;DHT22;61000;48.120;11.548;2023-09-19T02:33:57;16.80;99.90
72865;DHT22;61000;48.120;11.548;2023-09-19T02:36:27;16.80;99.90
72865;DHT22;61000;48.120;11.548;2023-09-19T02:38:55;16.80;99.90
72865;DHT22;61000;48.120;11.548;2023-09-19T02:41:22;16.80;99.90
72865;DHT22;61000;48.120;11.548;2023-09-19T02:43:49;16.70;99.90
72865;DHT22;61000;48.120;11.548;2023-09-19T02:46:16;16.70;99.90
72865;DHT22;61000;48.120;11.548;2023-09-19T02:48:43;16.70;99.90
72865;DHT22;61000;48.120;11.548;2023-09-19T02:51:10;16.70;99.90
72865;DHT22;61000;48.120;11.548;2023-09-19T02:53:40;16.70;99.90
72865;DHT22;61000;48.120;11.548;2023-09-19T02:56:09;16.70;99.90
72865;DHT22;61000;48.120;11.548;2023-09-19T02:58:39;16.70;99.90
72865;DHT22;61000;48.120;11.548;2023-09-19T03:01:09;16.70;99.90
72865;DHT22;61000;48.120;11.548;2023-09-19T03:03:38;16.70;99.90
72865;DHT22;61000;48.120;11.548;2023-09-19T03:06:05;16.60;99.90
72865;DHT22;61000;48.120;11.548;2023-09-19T03:08:34;16.60;99.90
72865;DHT22;61000;48.120;11.548;2023-09-19T03:11:05;16.60;99.90
72865;DHT22;61000;48.120;11.548;2023-09-19T03:13:34;16.60;99.90
72865;DHT22;61000;48.120;11.548;2023-09-19T03:16:02;16.60;99.90
72865;DHT22;61000;48.120;11.548;2023-09-19T03:18:31;16.60;99.90
72865;DHT22;61000;48.120;11.548;2023-09-19T03:20:58;16.50;99.90
72865;DHT22;61000;48.120;11.548;2023-09-19T03:23:27;16.50;99.90
72865;DHT22;61000;48.120;11.548;2023-09-19T03:25:55;16.50;99.90
72865;DHT22;61000;48.120;11.548;2023-09-19T03:28:24;16.50;99.90
72865;DHT22;61000;48.120;11.548;2023-09-19T03:30:59;16.50;99.90
72865;DHT22;61000;48.120;11.548;2023-09-19T03:33:27;16.50;99.90
72865;DHT22;61000;48.120;11.548;2023-09-19T03:35:57;16.50;99.90
72865;DHT22;61000;48.120;11.548;2023-09-19T03:38:25;16.60;99.90
72865;DHT22;61000;48.120;11.548;2023-09-19T03:40:52;16.60;99.90
72865;DHT22;61000;48.120;11.548;2023-09-19T03:43:19;16.70;99.90
72865;DHT22;61000;48.120;11.548;2023-09-19T03:45:47;16.60;99.90
72865;DHT22;61000;48.120;11.548;2023-09-19T03:48:17;16.60;99.90
72865;DHT22;61000;48.120;11.548;2023-09-19T03:50:45;16.60;99.90
72865;DHT22;61000;48.120;11.548;2023-09-19T03:53:12;16.60;99.90
72865;DHT22;61000;48.120;11.548;2023-09-19T03:55:39;16.60;99.90
72865;DHT22;61000;48.120;11.548;2023-09-19T03:58:06;16.60;99.90
72865;DHT22;61000;48.120;11.548;2023-09-19T04:00:33;16.60;99.90
72865;DHT22;61000;48.120;11.548;2023-09-19T04:03:01;16.60;99.90
72865;DHT22;61000;48.120;11.548;2023-09-19T04:05:31;16.60;99.90
72865;DHT22;61000;48.120;11.548;2023-09-19T04:07:59;16.60;99.90
72865;DHT22;61000;48.120;11.548;2023-09-19T04:10:26;16.60;99.90
72865;DHT22;61000;48.120;11.548;2023-09-19T04:12:55;16.60;99.90
72865;DHT22;61000;48.120;11.548;2023-09-19T04:15:23;16.60;99.90
72865;DHT22;61000;48.120;11.548;2023-09-19T04:17:52;16.60;99.90
72865;DHT22;61000;48.120;11.548;2023-09-19T04:20:20;16.70;99.90
72865;DHT22;61000;48.120;11.548;2023-09-19T04:22:48;16.70;99.90
72865;DHT22;61000;48.120;11.548;2023-09-19T04:25:16;16.70;99.90
72865;DHT22;61000;48.120;11.548;2023-09-19T04:27:44;16.60;99.90
72865;DHT22;61000;48.120;11.548;2023-09-19T04:30:11;16.70;99.90
72865;DHT22;61000;48.120;11.548;2023-09-19T04:32:38;16.70;99.90
72865;DHT22;61000;48.120;11.548;2023-09-19T04:35:07;16.70;99.90
72865;DHT22;61000;48.120;11.548;2023-09-19T04:37:37;16.70;99.90
72865;DHT22;61000;48.120;11.548;2023-09-19T04:40:07;16.70;99.90
72865;DHT22;61000;48.120;11.548;2023-09-19T04:42:40;16.70;99.90
72865;DHT22;61000;48.120;11.548;2023-09-19T04:45:08;16.70;99.90
72865;DHT22;61000;48.120;11.548;2023-09-19T04:47:36;16.70;99.90
72865;DHT22;61000;48.120;11.548;2023-09-19T04:50:06;16.70;99.90
72865;DHT22;61000;48.120;11.548;2023-09-19T04:52:33;16.70;99.90
72865;DHT22;61000;48.120;11.548;2023-09-19T04:55:01;16.70;99.90
72865;DHT22;61000;48.120;11.548;2023-09-19T04:57:29;16.70;99.90
72865;DHT22;61000;48.120;11.548;2023-09-19T04:59:57;16.60;99.90
72865;DHT22;61000;48.120;11.548;2023-09-19T05:02:24;16.60;99.90
72865;DHT22;61000;48.120;11.548;2023-09-19T05:04:50;16.60;99.90
72865;DHT22;61000;48.120;11.548;2023-09-19T05:07:19;16.70;99.90
72865;DHT22;61000;48.120;11.548;2023-09-19T05:09:47;16.70;99.90
72865;DHT22;61000;48.120;11.548;2023-09-19T05:12:15;16.70;99.90
72865;DHT22;61000;48.120;11.548;2023-09-19T05:14:44;16.70;99.90
72865;DHT22;61000;48.120;11.548;2023-09-19T05:17:10;16.70;99.90
72865;DHT22;61000;48.120;11.548;2023-09-19T05:19:37;16.70;99.90
72865;DHT22;61000;48.120;11.548;2023-09-19T05:22:04;16.70;99.90
72865;DHT22;61000;48.120;11.548;2023-09-19T05:24:32;16.70;99.90
72865;DHT22;61000;48.120;11.548;2023-09-19T05:26:59;16.70;99.90
72865;DHT22;61000;48.120;11.548;2023-09-19T05:29:28;16.70;99.90
72865;DHT22;61000;48.120;11.548;2023-09-19T05:31:54;16.80;99.90
72865;DHT22;61000;48.120;11.548;2023-09-19T05:34:21;16.70;99.90
72865;DHT22;61000;48.120;11.548;2023-09-19T05:36:48;16.70;99.90
72865;DHT22;61000;48.120;11.548;2023-09-19T05:39:15;16.80;99.90
72865;DHT22;61000;48.120;11.548;2023-09-19T05:41:42;16.70;99.90
72865;DHT22;61000;48.120;11.548;2023-09-19T05:44:09;16.70;99.90
72865;DHT22;61000;48.120;11.548;2023-09-19T05:46:37;16.70;99.90
72865;DHT22;61000;48.120;11.548;2023-09-19T05:49:04;16.70;99.90
72865;DHT22;61000;48.120;11.548;2023-09-19T05:51:31;16.70;99.90
72865;DHT22;61000;48.120;11.548;2023-09-19T05:53:58;16.60;99.90
72865;DHT22;61000;48.120;11.548;2023-09-19T05:56:24;16.60;99.90
72865;DHT22;61000;48.120;11.548;2023-09-19T05:58:52;16.60;99.90
72865;DHT22;61000;48.120;11.548;2023-09-19T06:01:19;16.50;99.90
72865;DHT22;61000;48.120;11.548;2023-09-19T06:03:47;16.60;99.90
72865;DHT22;61000;48.120;11.548;2023-09-19T06:06:14;16.60;99.90
72865;DHT22;61000;48.120;11.548;2023-09-19T06:08:42;16.80;99.90
72865;DHT22;61000;48.120;11.548;2023-09-19T06:11:10;16.80;99.90
72865;DHT22;61000;48.120;11.548;2023-09-19T06:13:37;16.90;99.90
72865;DHT22;61000;48.120;11.548;2023-09-19T06:16:06;16.90;99.90
72865;DHT22;61000;48.120;11.548;2023-09-19T06:18:32;16.90;99.90
72865;DHT22;61000;48.120;11.548;2023-09-19T06:21:01;17.00;99.90
72865;DHT22;61000;48.120;11.548;2023-09-19T06:23:33;17.00;99.90
72865;DHT22;61000;48.120;11.548;2023-09-19T06:26:00;17.10;99.90
72865;DHT22;61000;48.120;11.548;2023-09-19T06:28:26;17.10;99.90
72865;DHT22;61000;48.120;11.548;2023-09-19T06:30:54;17.20;99.90
72865;DHT22;61000;48.120;11.548;2023-09-19T06:33:20;17.30;99.90
72865;DHT22;61000;48.120;11.548;2023-09-19T06:35:48;17.30;99.90
72865;DHT22;61000;48.120;11.548;2023-09-19T06:38:16;17.30;99.90
72865;DHT22;61000;48.120;11.548;2023-09-19T06:40:44;17.30;99.90
72865;DHT22;61000;48.120;11.548;2023-09-19T06:43:12;17.30;99.90
72865;DHT22;61000;48.120;11.548;2023-09-19T06:45:39;17.30;99.90
72865;DHT22;61000;48.120;11.548;2023-09-19T06:48:06;17.40;99.90
72865;DHT22;61000;48.120;11.548;2023-09-19T06:50:35;17.40;99.90
72865;DHT22;61000;48.120;11.548;2023-09-19T06:53:02;17.50;99.90
72865;DHT22;61000;48.120;11.548;2023-09-19T06:55:31;17.40;99.90
72865;DHT22;61000;48.120;11.548;2023-09-19T06:57:58;17.40;99.90
72865;DHT22;61000;48.120;11.548;2023-09-19T07:00:24;17.30;99.90
72865;DHT22;61000;48.120;11.548;2023-09-19T07:02:55;17.40;99.90
72865;DHT22;61000;48.120;11.548;2023-09-19T07:05:24;17.50;99.90
72865;DHT22;61000;48.120;11.548;2023-09-19T07:07:51;17.60;99.90
72865;DHT22;61000;48.120;11.548;2023-09-19T07:10:17;17.60;99.90
72865;DHT22;61000;48.120;11.548;2023-09-19T07:12:46;17.70;99.90
72865;DHT22;61000;48.120;11.548;2023-09-19T07:15:13;17.70;99.90
72865;DHT22;61000;48.120;11.548;2023-09-19T07:17:40;17.70;99.90
72865;DHT22;61000;48.120;11.548;2023-09-19T07:20:08;17.70;99.90
72865;DHT22;61000;48.120;11.548;2023-09-19T07:22:35;17.70;99.90
72865;DHT22;61000;48.120;11.548;2023-09-19T07:25:05;17.70;99.90
72865;DHT22;61000;48.120;11.548;2023-09-19T07:27:32;17.80;99.90
72865;DHT22;61000;48.120;11.548;2023-09-19T07:30:00;17.80;99.90
72865;DHT22;61000;48.120;11.548;2023-09-19T07:32:27;17.80;99.90
72865;DHT22;61000;48.120;11.548;2023-09-19T07:34:54;17.90;99.90
72865;DHT22;61000;48.120;11.548;2023-09-19T07:37:21;18.00;99.90
72865;DHT22;61000;48.120;11.548;2023-09-19T07:39:51;18.10;99.90
72865;DHT22;61000;48.120;11.548;2023-09-19T07:42:18;18.30;99.90
72865;DHT22;61000;48.120;11.548;2023-09-19T07:44:45;18.40;99.90
72865;DHT22;61000;48.120;11.548;2023-09-19T07:47:14;18.60;99.90
72865;DHT22;61000;48.120;11.548;2023-09-19T07:49:41;18.50;99.90
72865;DHT22;61000;48.120;11.548;2023-09-19T07:52:08;18.50;99.90
72865;DHT22;61000;48.120;11.548;2023-09-19T07:54:36;18.50;99.90
72865;DHT22;61000;48.120;11.548;2023-09-19T07:57:04;18.50;99.90
72865;DHT22;61000;48.120;11.548;2023-09-19T07:59:31;18.60;99.90
72865;DHT22;61000;48.120;11.548;2023-09-19T08:01:58;18.60;99.90
72865;DHT22;61000;48.120;11.548;2023-09-19T08:04:27;18.60;99.90
72865;DHT22;61000;48.120;11.548;2023-09-19T08:06:56;18.60;99.90
72865;DHT22;61000;48.120;11.548;2023-09-19T08:09:24;18.90;99.90
72865;DHT22;61000;48.120;11.548;2023-09-19T08:11:51;18.90;99.90
72865;DHT22;61000;48.120;11.548;2023-09-19T08:14:18;18.90;99.90
72865;DHT22;61000;48.120;11.548;2023-09-19T08:16:44;19.00;99.90
72865;DHT22;61000;48.120;11.548;2023-09-19T08:19:13;19.10;99.90
72865;DHT22;61000;48.120;11.548;2023-09-19T08:21:41;19.20;99.90
72865;DHT22;61000;48.120;11.548;2023-09-19T08:24:11;19.20;99.90
72865;DHT22;61000;48.120;11.548;2023-09-19T08:26:38;19.30;99.90
72865;DHT22;61000;48.120;11.548;2023-09-19T08:29:05;19.10;99.90
72865;DHT22;61000;48.120;11.548;2023-09-19T08:31:33;19.00;99.90
72865;DHT22;61000;48.120;11.548;2023-09-19T08:34:00;18.90;99.90
72865;DHT22;61000;48.120;11.548;2023-09-19T08:36:27;19.00;99.90
72865;DHT22;61000;48.120;11.548;2023-09-19T08:38:55;19.10;99.90
72865;DHT22;61000;48.120;11.548;2023-09-19T08:41:22;19.20;99.90
72865;DHT22;61000;48.120;11.548;2023-09-19T08:43:49;19.20;99.90
72865;DHT22;61000;48.120;11.548;2023-09-19T08:46:18;19.20;99.90
72865;DHT22;61000;48.120;11.548;2023-09-19T08:48:50;19.30;99.90
72865;DHT22;61000;48.120;11.548;2023-09-19T08:51:27;19.40;99.90
72865;DHT22;61000;48.120;11.548;2023-09-19T10:25:47;24.30;89.00
72865;DHT22;61000;48.120;11.548;2023-09-19T10:28:16;22.10;91.80
72865;DHT22;61000;48.120;11.548;2023-09-19T10:30:48;22.00;92.30
72865;DHT22;61000;48.120;11.548;2023-09-19T10:33:17;22.20;92.10
72865;DHT22;61000;48.120;11.548;2023-09-19T10:35:47;22.00;92.00
72865;DHT22;61000;48.120;11.548;2023-09-19T10:38:17;22.00;92.50
72865;DHT22;61000;48.120;11.548;2023-09-19T10:40:49;22.10;92.50
72865;DHT22;61000;48.120;11.548;2023-09-19T10:43:17;22.10;92.40
72865;DHT22;61000;48.120;11.548;2023-09-19T10:45:45;22.00;92.50
72865;DHT22;61000;48.120;11.548;2023-09-19T10:48:15;21.80;92.70
72865;DHT22;61000;48.120;11.548;2023-09-19T10:50:48;22.00;92.90
72865;DHT22;61000;48.120;11.548;2023-09-19T10:53:17;22.10;92.60
72865;DHT22;61000;48.120;11.548;2023-09-19T10:55:52;22.10;92.60
72865;DHT22;61000;48.120;11.548;2023-09-19T10:58:31;22.00;92.90
72865;DHT22;61000;48.120;11.548;2023-09-19T11:01:00;21.80;93.00
72865;DHT22;61000;48.120;11.548;2023-09-19T11:03:32;21.50;93.40
72865;DHT22;61000;48.120;11.548;2023-09-19T11:06:04;21.50;93.70
72865;DHT22;61000;48.120;11.548;2023-09-19T11:08:30;21.40;93.90
72865;DHT22;61000;48.120;11.548;2023-09-19T11:11:00;21.10;93.90
72865;DHT22;61000;48.120;11.548;2023-09-19T11:13:30;20.90;94.40
72865;DHT22;61000;48.120;11.548;2023-09-19T11:16:04;20.80;94.60
72865;DHT22;61000;48.120;11.548;2023-09-19T11:18:53;20.80;94.40
72865;DHT22;61000;48.120;11.548;2023-09-19T11:21:41;20.80;94.40
72865;DHT22;61000;48.120;11.548;2023-09-19T11:24:32;20.60;93.80
72865;DHT22;61000;48.120;11.548;2023-09-19T11:27:12;20.60;93.60
72865;DHT22;61000;48.120;11.548;2023-09-19T11:29:40;20.80;93.40
72865;DHT22;61000;48.120;11.548;2023-09-19T11:32:07;20.80;92.30
72865;DHT22;61000;48.120;11.548;2023-09-19T11:34:48;20.90;92.30
72865;DHT22;61000;48.120;11.548;2023-09-19T11:40:45;21.00;91.50
72865;DHT22;61000;48.120;11.548;2023-09-19T11:43:31;21.00;91.40
72865;DHT22;61000;48.120;11.548;2023-09-19T11:46:09;21.20;91.20
72865;DHT22;61000;48.120;11.548;2023-09-19T11:48:38;21.40;90.70
72865;DHT22;61000;48.120;11.548;2023-09-19T11:51:11;21.50;91.10
72865;DHT22;61000;48.120;11.548;2023-09-19T11:53:45;21.60;90.10
72865;DHT22;61000;48.120;11.548;2023-09-19T11:56:15;21.60;89.00
72865;DHT22;61000;48.120;11.548;2023-09-19T11:58:44;21.50;90.00
72865;DHT22;61000;48.120;11.548;2023-09-19T12:01:21;21.60;90.00
72865;DHT22;61000;48.120;11.548;2023-09-19T12:03:53;21.60;90.40
72865;DHT22;61000;48.120;11.548;2023-09-19T12:06:20;21.80;90.20
72865;DHT22;61000;48.120;11.548;2023-09-19T12:08:48;22.00;90.60
72865;DHT22;61000;48.120;11.548;2023-09-19T12:11:17;22.20;90.40
72865;DHT22;61000;48.120;11.548;2023-09-19T12:13:48;22.40;90.00
72865;DHT22;61000;48.120;11.548;2023-09-19T12:16:16;22.60;90.20
72865;DHT22;61000;48.120;11.548;2023-09-19T12:18:44;22.70;90.00
72865;DHT22;61000;48.120;11.548;2023-09-19T12:21:26;22.70;89.30
72865;DHT22;61000;48.120;11.548;2023-09-19T12:24:11;22.60;88.90
72865;DHT22;61000;48.120;11.548;2023-09-19T12:26:43;22.70;88.80
72865;DHT22;61000;48.120;11.548;2023-09-19T12:29:16;23.10;89.70
72865;DHT22;61000;48.120;11.548;2023-09-19T12:31:51;23.00;87.90
72865;DHT22;61000;48.120;11.548;2023-09-19T12:34:21;22.80;87.80
72865;DHT22;61000;48.120;11.548;2023-09-19T12:36:49;22.70;87.80
72865;DHT22;61000;48.120;11.548;2023-09-19T12:39:25;22.60;88.10
72865;DHT22;61000;48.120;11.548;2023-09-19T12:41:53;22.50;88.30
72865;DHT22;61000;48.120;11.548;2023-09-19T12:44:21;22.80;89.30
72865;DHT22;61000;48.120;11.548;2023-09-19T12:46:50;23.00;86.90
72865;DHT22;61000;48.120;11.548;2023-09-19T12:49:20;22.80;86.20
72865;DHT22;61000;48.120;11.548;2023-09-19T12:51:48;22.40;88.30
72865;DHT22;61000;48.120;11.548;2023-09-19T12:54:16;22.30;89.90
72865;DHT22;61000;48.120;11.548;2023-09-19T12:56:44;22.60;90.30
72865;DHT22;61000;48.120;11.548;2023-09-19T12:59:14;22.70;89.30
72865;DHT22;61000;48.120;11.548;2023-09-19T13:01:43;22.70;89.50
72865;DHT22;61000;48.120;11.548;2023-09-19T13:04:15;22.90;90.10
72865;DHT22;61000;48.120;11.548;2023-09-19T13:06:45;23.20;88.60
72865;DHT22;61000;48.120;11.548;2023-09-19T13:09:14;23.30;88.90
72865;DHT22;61000;48.120;11.548;2023-09-19T13:11:41;23.30;87.80
72865;DHT22;61000;48.120;11.548;2023-09-19T13:14:18;23.40;88.20
72865;DHT22;61000;48.120;11.548;2023-09-19T13:16:56;23.80;88.30
72865;DHT22;61000;48.120;11.548;2023-09-19T13:19:37;23.70;85.80
72865;DHT22;61000;48.120;11.548;2023-09-19T13:24:49;23.30;86.10
72865;DHT22;61000;48.120;11.548;2023-09-19T13:27:17;23.20;87.20
72865;DHT22;61000;48.120;11.548;2023-09-19T13:29:44;23.20;87.60
72865;DHT22;61000;48.120;11.548;2023-09-19T13:32:12;23.30;88.80
72865;DHT22;61000;48.120;11.548;2023-09-19T13:34:39;23.50;89.40
72865;DHT22;61000;48.120;11.548;2023-09-19T13:37:06;23.50;88.20
72865;DHT22;61000;48.120;11.548;2023-09-19T13:39:33;23.50;89.10
72865;DHT22;61000;48.120;11.548;2023-09-19T13:41:59;23.40;88.90
72865;DHT22;61000;48.120;11.548;2023-09-19T13:44:28;23.40;88.10
72865;DHT22;61000;48.120;11.548;2023-09-19T13:46:55;23.20;85.80
72865;DHT22;61000;48.120;11.548;2023-09-19T13:49:23;23.40;86.70
72865;DHT22;61000;48.120;11.548;2023-09-19T13:52:33;23.60;85.60
72865;DHT22;61000;48.120;11.548;2023-09-19T13:54:50;23.80;84.10
72865;DHT22;61000;48.120;11.548;2023-09-19T13:57:18;23.60;82.80
72865;DHT22;61000;48.120;11.548;2023-09-19T13:59:45;23.50;82.50
72865;DHT22;61000;48.120;11.548;2023-09-19T14:02:12;23.30;82.80
72865;DHT22;61000;48.120;11.548;2023-09-19T14:04:41;23.00;82.90
72865;DHT22;61000;48.120;11.548;2023-09-19T14:07:08;22.90;84.10
72865;DHT22;61000;48.120;11.548;2023-09-19T14:09:35;22.70;85.10
72865;DHT22;61000;48.120;11.548;2023-09-19T14:12:02;22.90;85.70
72865;DHT22;61000;48.120;11.548;2023-09-19T14:14:29;23.00;86.10
72865;DHT22;61000;48.120;11.548;2023-09-19T14:16:56;23.00;85.50
72865;DHT22;61000;48.120;11.548;2023-09-19T14:19:26;23.10;85.80
72865;DHT22;61000;48.120;11.548;2023-09-19T14:21:54;23.10;84.70
72865;DHT22;61000;48.120;11.548;2023-09-19T14:24:22;23.10;84.60
72865;DHT22;61000;48.120;11.548;2023-09-19T14:26:49;23.10;84.80
72865;DHT22;61000;48.120;11.548;2023-09-19T14:29:16;22.90;84.50
72865;DHT22;61000;48.120;11.548;2023-09-19T14:31:43;22.60;86.00
72865;DHT22;61000;48.120;11.548;2023-09-19T14:34:10;22.50;87.20
72865;DHT22;61000;48.120;11.548;2023-09-19T14:36:37;22.60;86.20
72865;DHT22;61000;48.120;11.548;2023-09-19T14:39:06;22.70;86.30
72865;DHT22;61000;48.120;11.548;2023-09-19T14:41:34;22.70;86.20
72865;DHT22;61000;48.120;11.548;2023-09-19T14:44:02;22.60;85.10
72865;DHT22;61000;48.120;11.548;2023-09-19T14:46:30;22.70;86.60
72865;DHT22;61000;48.120;11.548;2023-09-19T14:48:57;22.50;85.60
72865;DHT22;61000;48.120;11.548;2023-09-19T14:51:25;22.60;86.20
72865;DHT22;61000;48.120;11.548;2023-09-19T14:53:53;22.70;86.60
72865;DHT22;61000;48.120;11.548;2023-09-19T14:56:22;22.90;86.30
72865;DHT22;61000;48.120;11.548;2023-09-19T14:58:51;22.80;86.50
72865;DHT22;61000;48.120;11.548;2023-09-19T15:01:18;22.80;86.30
72865;DHT22;61000;48.120;11.548;2023-09-19T15:03:45;22.70;86.60
72865;DHT22;61000;48.120;11.548;2023-09-19T15:06:14;22.60;86.30
72865;DHT22;61000;48.120;11.548;2023-09-19T15:08:43;22.60;87.20
72865;DHT22;61000;48.120;11.548;2023-09-19T15:11:13;22.60;85.80
72865;DHT22;61000;48.120;11.548;2023-09-19T15:13:44;22.50;85.60
72865;DHT22;61000;48.120;11.548;2023-09-19T15:16:12;22.60;86.70
72865;DHT22;61000;48.120;11.548;2023-09-19T15:18:40;22.70;86.00
72865;DHT22;61000;48.120;11.548;2023-09-19T15:21:08;22.70;86.00
72865;DHT22;61000;48.120;11.548;2023-09-19T15:23:36;22.60;86.20
72865;DHT22;61000;48.120;11.548;2023-09-19T15:26:04;22.60;87.10
72865;DHT22;61000;48.120;11.548;2023-09-19T15:28:31;22.50;86.60
72865;DHT22;61000;48.120;11.548;2023-09-19T15:31:01;22.40;86.60
72865;DHT22;61000;48.120;11.548;2023-09-19T15:33:30;22.40;87.20
72865;DHT22;61000;48.120;11.548;2023-09-19T15:36:03;22.40;87.30
72865;DHT22;61000;48.120;11.548;2023-09-19T15:38:31;22.40;88.00
72865;DHT22;61000;48.120;11.548;2023-09-19T15:40:58;22.40;87.70
72865;DHT22;61000;48.120;11.548;2023-09-19T15:43:25;22.30;86.90
72865;DHT22;61000;48.120;11.548;2023-09-19T15:45:52;22.30;87.40
72865;DHT22;61000;48.120;11.548;2023-09-19T15:48:21;22.20;87.80
72865;DHT22;61000;48.120;11.548;2023-09-19T15:50:48;22.20;89.10
72865;DHT22;61000;48.120;11.548;2023-09-19T15:53:15;22.10;88.40
72865;DHT22;61000;48.120;11.548;2023-09-19T15:55:42;22.20;88.70
72865;DHT22;61000;48.120;11.548;2023-09-19T15:58:10;22.10;88.10
72865;DHT22;61000;48.120;11.548;2023-09-19T16:00:40;22.00;88.50
72865;DHT22;61000;48.120;11.548;2023-09-19T16:03:07;22.00;88.80
72865;DHT22;61000;48.120;11.548;2023-09-19T16:05:38;22.00;88.40
72865;DHT22;61000;48.120;11.548;2023-09-19T16:08:06;21.90;88.20
72865;DHT22;61000;48.120;11.548;2023-09-19T16:10:36;21.80;88.50
72865;DHT22;61000;48.120;11.548;2023-09-19T16:13:04;21.80;88.20
72865;DHT22;61000;48.120;11.548;2023-09-19T16:15:31;21.80;88.00
72865;DHT22;61000;48.120;11.548;2023-09-19T16:17:58;21.70;87.60
72865;DHT22;61000;48.120;11.548;2023-09-19T16:20:26;21.60;88.20
72865;DHT22;61000;48.120;11.548;2023-09-19T16:22:55;21.50;88.20
72865;DHT22;61000;48.120;11.548;2023-09-19T16:25:21;21.50;88.80
72865;DHT22;61000;48.120;11.548;2023-09-19T16:27:49;21.30;88.00
72865;DHT22;61000;48.120;11.548;2023-09-19T16:30:16;21.30;89.80
72865;DHT22;61000;48.120;11.548;2023-09-19T16:32:44;21.20;89.60
72865;DHT22;61000;48.120;11.548;2023-09-19T16:35:11;21.10;89.70
72865;DHT22;61000;48.120;11.548;2023-09-19T16:37:38;21.00;90.10
72865;DHT22;61000;48.120;11.548;2023-09-19T16:40:07;21.00;90.20
72865;DHT22;61000;48.120;11.548;2023-09-19T16:42:35;21.00;90.10
72865;DHT22;61000;48.120;11.548;2023-09-19T16:45:03;20.90;90.20
72865;DHT22;61000;48.120;11.548;2023-09-19T16:47:30;20.90;90.20
72865;DHT22;61000;48.120;11.548;2023-09-19T16:49:57;20.80;90.20
72865;DHT22;61000;48.120;11.548;2023-09-19T16:52:24;20.80;90.50
72865;DHT22;61000;48.120;11.548;2023-09-19T16:54:51;20.70;90.70
72865;DHT22;61000;48.120;11.548;2023-09-19T16:57:20;20.70;90.70
72865;DHT22;61000;48.120;11.548;2023-09-19T16:59:47;20.70;90.90
72865;DHT22;61000;48.120;11.548;2023-09-19T17:02:15;20.60;91.10
72865;DHT22;61000;48.120;11.548;2023-09-19T17:04:42;20.60;91.30
72865;DHT22;61000;48.120;11.548;2023-09-19T17:07:09;20.50;91.40
72865;DHT22;61000;48.120;11.548;2023-09-19T17:09:36;20.40;91.50
72865;DHT22;61000;48.120;11.548;2023-09-19T17:12:05;20.40;91.50
72865;DHT22;61000;48.120;11.548;2023-09-19T17:14:35;20.40;91.80